Time;durP1;ratioP1;P1;durP2;ratioP2;P2;SDS_P1;SDS_P2;PMS_P1;PMS_P2;Temp;Humidity;BMP_temperature;BMP_pressure;BME280_temperature;BME280_humidity;BME280_pressure;Samples;Min_cycle;Max_cycle;Signal;HPM_P1;HPM_P2
2023/02/06 00:00:38;;;;;;;23.40;12.45;;;1.70;99.90;;;;;;5026036;28;20108;-75
2023/02/06 00:03:05;;;;;;;25.20;12.55;;;1.70;99.90;;;;;;5026648;28;20033;-77
2023/02/06 00:05:31;;;;;;;26.98;12.05;;;1.60;99.90;;;;;;5010369;28;20038;-75
2023/02/06 00:07:57;;;;;;;23.63;11.98;;;1.60;99.90;;;;;;5028269;28;20101;-74
2023/02/06 00:10:24;;;;;;;25.05;11.18;;;1.70;99.90;;;;;;5008117;28;20049;-79
2023/02/06 00:12:50;;;;;;;22.88;11.15;;;1.60;99.90;;;;;;5007096;28;20037;-74
2023/02/06 00:15:17;;;;;;;21.60;10.32;;;1.60;99.90;;;;;;5006282;28;20057;-77
2023/02/06 00:17:42;;;;;;;22.42;10.48;;;1.60;99.90;;;;;;5009529;28;20696;-73
2023/02/06 00:20:10;;;;;;;25.20;10.65;;;1.60;99.90;;;;;;5027218;28;20041;-82
2023/02/06 00:22:36;;;;;;;22.08;10.85;;;1.60;99.90;;;;;;5024487;28;20108;-77
2023/02/06 00:25:03;;;;;;;21.88;10.15;;;1.60;99.90;;;;;;5026642;28;20096;-78
2023/02/06 00:27:30;;;;;;;21.65;9.65;;;1.60;99.90;;;;;;4995332;28;20028;-79
2023/02/06 00:29:58;;;;;;;22.40;10.48;;;1.60;99.90;;;;;;5026118;28;20602;-80
2023/02/06 00:32:24;;;;;;;19.17;10.02;;;1.60;99.90;;;;;;5008625;28;20018;-78
2023/02/06 00:34:50;;;;;;;20.73;10.32;;;1.60;99.90;;;;;;5013980;28;20033;-75
2023/02/06 00:37:16;;;;;;;23.17;10.02;;;1.50;99.90;;;;;;5026156;28;21941;-75
2023/02/06 00:39:42;;;;;;;22.35;10.07;;;1.50;99.90;;;;;;5028370;28;20033;-75
2023/02/06 00:42:08;;;;;;;22.98;10.45;;;1.50;99.90;;;;;;5028287;28;20037;-78
2023/02/06 00:44:34;;;;;;;23.70;10.65;;;1.50;99.90;;;;;;5009256;28;20037;-73
2023/02/06 00:47:00;;;;;;;23.38;11.13;;;1.50;99.90;;;;;;5024486;28;20037;-74
2023/02/06 00:49:26;;;;;;;21.25;9.52;;;1.40;99.90;;;;;;5008653;28;20029;-74
2023/02/06 00:51:52;;;;;;;21.38;8.90;;;1.50;99.90;;;;;;5031768;28;20048;-75
2023/02/06 00:54:19;;;;;;;20.60;9.90;;;1.50;99.90;;;;;;5029127;28;20021;-75
2023/02/06 00:56:47;;;;;;;23.80;9.13;;;1.50;99.90;;;;;;5029254;28;20033;-77
2023/02/06 00:59:12;;;;;;;23.13;8.27;;;1.50;99.90;;;;;;5014604;28;20675;-74
2023/02/06 01:01:38;;;;;;;23.83;9.10;;;1.40;99.90;;;;;;5027922;28;20060;-74
2023/02/06 01:04:05;;;;;;;20.52;8.60;;;1.40;99.90;;;;;;5027139;28;20060;-77
2023/02/06 01:06:31;;;;;;;19.55;8.15;;;1.40;99.90;;;;;;5008954;28;20507;-74
2023/02/06 01:08:57;;;;;;;19.48;8.10;;;1.40;99.90;;;;;;5003640;28;20073;-82
2023/02/06 01:11:24;;;;;;;19.70;7.97;;;1.40;99.90;;;;;;5015982;28;20065;-74
2023/02/06 01:13:50;;;;;;;18.98;8.65;;;1.40;99.90;;;;;;5024295;28;20029;-74
2023/02/06 01:16:20;;;;;;;24.90;8.35;;;1.40;99.90;;;;;;5026824;28;20119;-74
2023/02/06 01:18:46;;;;;;;18.08;7.10;;;1.40;99.90;;;;;;5028203;28;20054;-74
2023/02/06 01:21:15;;;;;;;19.13;7.80;;;1.40;99.90;;;;;;5042047;28;20524;-75
2023/02/06 01:23:42;;;;;;;17.08;7.25;;;1.40;99.90;;;;;;5026242;28;20523;-78
2023/02/06 01:26:12;;;;;;;15.48;7.53;;;1.40;99.90;;;;;;4991863;28;20663;-77
2023/02/06 01:28:39;;;;;;;16.67;7.55;;;1.40;99.90;;;;;;5010224;28;20029;-75
2023/02/06 01:31:20;;;;;;;19.35;7.75;;;1.40;99.90;;;;;;5027053;28;20504;-75
2023/02/06 01:33:47;;;;;;;18.95;7.63;;;1.40;99.90;;;;;;5023647;28;20030;-74
2023/02/06 01:36:14;;;;;;;20.50;6.88;;;1.40;99.90;;;;;;5025405;28;20416;-74
2023/02/06 01:38:41;;;;;;;19.27;6.82;;;1.40;99.90;;;;;;5022964;28;20033;-74
2023/02/06 01:41:09;;;;;;;24.20;7.70;;;1.30;99.90;;;;;;5009046;28;22104;-74
2023/02/06 01:43:38;;;;;;;15.95;6.93;;;1.30;99.90;;;;;;5010587;28;20091;-74
2023/02/06 01:46:04;;;;;;;18.50;6.65;;;1.30;99.90;;;;;;5026840;28;20033;-74
2023/02/06 01:48:34;;;;;;;16.60;6.97;;;1.30;99.90;;;;;;5007245;28;20048;-75
2023/02/06 01:51:02;;;;;;;19.40;7.13;;;1.40;99.90;;;;;;5025749;28;20115;-79
2023/02/06 01:53:29;;;;;;;17.48;6.85;;;1.30;99.90;;;;;;5025797;28;20036;-77
2023/02/06 01:55:58;;;;;;;19.80;6.53;;;1.30;99.90;;;;;;5010307;28;20494;-74
2023/02/06 01:58:32;;;;;;;16.92;6.38;;;1.30;99.90;;;;;;5025576;28;20126;-74
2023/02/06 02:00:59;;;;;;;17.15;7.22;;;1.30;99.90;;;;;;5026738;28;20137;-74
2023/02/06 02:03:27;;;;;;;14.50;6.03;;;1.30;99.90;;;;;;5023009;28;20029;-75
2023/02/06 02:06:01;;;;;;;16.52;5.82;;;1.30;99.90;;;;;;5025258;28;20033;-77
2023/02/06 02:08:34;;;;;;;17.55;6.43;;;1.30;99.90;;;;;;4993865;28;20025;-75
2023/02/06 02:11:02;;;;;;;14.60;6.80;;;1.30;99.90;;;;;;4990629;28;20088;-79
2023/02/06 02:13:30;;;;;;;12.30;5.22;;;1.30;99.90;;;;;;5022030;28;20113;-77
2023/02/06 02:16:11;;;;;;;22.23;6.50;;;1.20;99.90;;;;;;5008510;28;20037;-74
2023/02/06 02:19:06;;;;;;;16.38;5.95;;;1.30;99.90;;;;;;5026604;28;20441;-77
2023/02/06 02:21:48;;;;;;;14.43;5.30;;;1.20;99.90;;;;;;5021875;28;20037;-76
2023/02/06 02:24:51;;;;;;;18.23;6.00;;;1.20;99.90;;;;;;5026719;28;20026;-75
2023/02/06 02:27:35;;;;;;;17.85;6.55;;;1.20;99.90;;;;;;5023930;28;20029;-77
2023/02/06 02:30:09;;;;;;;14.63;5.80;;;1.20;99.90;;;;;;5037058;28;20029;-79
2023/02/06 02:33:07;;;;;;;15.00;5.10;;;1.20;99.90;;;;;;5025343;28;20052;-77
2023/02/06 02:35:46;;;;;;;15.15;5.43;;;1.20;99.90;;;;;;5025598;28;20033;-80
2023/02/06 02:38:25;;;;;;;18.90;5.63;;;1.20;99.90;;;;;;4992263;28;20541;-77
2023/02/06 02:41:08;;;;;;;20.75;7.47;;;1.20;99.90;;;;;;5012186;28;20040;-77
2023/02/06 02:43:43;;;;;;;13.82;4.55;;;1.20;99.90;;;;;;4994648;28;20033;-76
2023/02/06 02:46:25;;;;;;;18.52;6.18;;;1.10;99.90;;;;;;5023994;28;20101;-75
2023/02/06 02:48:59;;;;;;;19.70;4.88;;;1.20;99.90;;;;;;5028965;28;20029;-74
2023/02/06 02:51:25;;;;;;;20.00;5.95;;;1.20;99.90;;;;;;5009929;28;20721;-75
2023/02/06 02:53:51;;;;;;;10.90;4.55;;;1.10;99.90;;;;;;5030463;28;20031;-73
2023/02/06 02:56:20;;;;;;;17.05;4.50;;;1.10;99.90;;;;;;5030911;28;20030;-74
2023/02/06 02:59:01;;;;;;;16.40;4.65;;;1.10;99.90;;;;;;5030285;28;20033;-73
2023/02/06 03:01:39;;;;;;;19.17;4.95;;;1.10;99.90;;;;;;5010887;28;20029;-74
2023/02/06 03:04:34;;;;;;;19.20;6.28;;;1.10;99.90;;;;;;5028335;28;20080;-74
2023/02/06 03:07:32;;;;;;;20.42;5.35;;;1.10;99.90;;;;;;5022650;28;20042;-78
2023/02/06 03:10:05;;;;;;;13.13;5.07;;;1.10;99.90;;;;;;4996325;28;20034;-79
2023/02/06 03:12:55;;;;;;;15.68;5.38;;;1.10;99.90;;;;;;4995285;28;20069;-76
2023/02/06 03:15:30;;;;;;;15.82;5.25;;;1.10;99.90;;;;;;5026342;28;20446;-79
2023/02/06 03:18:30;;;;;;;15.65;4.65;;;1.10;99.90;;;;;;5028289;28;20626;-79
2023/02/06 03:20:57;;;;;;;16.13;4.65;;;1.10;99.90;;;;;;5026236;28;20061;-81
2023/02/06 03:23:29;;;;;;;30.30;4.82;;;1.00;99.90;;;;;;5025789;28;20040;-76
2023/02/06 03:26:00;;;;;;;15.68;4.65;;;1.00;99.90;;;;;;4983574;28;20033;-76
2023/02/06 03:28:33;;;;;;;21.17;4.68;;;1.00;99.90;;;;;;4982252;28;20033;-76
2023/02/06 03:31:02;;;;;;;15.05;4.22;;;1.00;99.90;;;;;;4995221;28;20026;-76
2023/02/06 03:33:34;;;;;;;16.27;4.45;;;1.00;99.90;;;;;;4995026;28;21063;-77
2023/02/06 03:36:04;;;;;;;19.80;4.35;;;1.00;99.90;;;;;;5012017;28;20037;-77
2023/02/06 03:38:30;;;;;;;19.90;4.45;;;1.00;99.90;;;;;;5020407;28;20056;-77
2023/02/06 03:40:59;;;;;;;21.88;4.53;;;1.00;99.90;;;;;;5012448;28;20048;-77
2023/02/06 03:43:27;;;;;;;18.23;3.92;;;1.00;99.90;;;;;;5028039;28;20567;-77
2023/02/06 03:46:00;;;;;;;10.93;3.72;;;1.00;99.90;;;;;;4992551;28;20588;-75
2023/02/06 03:48:30;;;;;;;14.73;3.78;;;1.00;99.90;;;;;;5024848;28;20037;-76
2023/02/06 03:51:00;;;;;;;22.73;4.28;;;1.00;99.90;;;;;;5028494;28;20030;-75
2023/02/06 03:53:26;;;;;;;14.37;4.13;;;1.00;99.90;;;;;;5043349;28;20034;-74
2023/02/06 03:55:57;;;;;;;14.65;3.60;;;1.00;99.90;;;;;;5029268;28;20030;-77
2023/02/06 03:58:23;;;;;;;16.73;4.32;;;1.10;99.90;;;;;;4999322;28;20044;-74
2023/02/06 04:00:50;;;;;;;13.30;4.00;;;1.10;99.90;;;;;;5037973;28;20081;-80
2023/02/06 04:03:18;;;;;;;23.95;4.32;;;1.00;99.90;;;;;;5008028;28;20056;-78
2023/02/06 04:05:45;;;;;;;24.52;4.43;;;1.00;99.90;;;;;;5002745;28;20104;-76
2023/02/06 04:08:11;;;;;;;13.77;3.40;;;1.00;99.90;;;;;;5023434;28;20041;-73
2023/02/06 04:10:38;;;;;;;19.10;4.20;;;1.00;99.90;;;;;;5028876;28;20389;-73
2023/02/06 04:13:04;;;;;;;13.00;4.00;;;1.10;99.90;;;;;;5029202;28;20061;-74
2023/02/06 04:15:30;;;;;;;18.05;3.70;;;1.10;99.90;;;;;;5009621;28;20030;-74
2023/02/06 04:17:57;;;;;;;17.70;3.70;;;1.10;99.90;;;;;;5022944;28;20034;-77
2023/02/06 04:20:22;;;;;;;19.15;3.85;;;1.10;99.90;;;;;;5026541;28;20037;-74
2023/02/06 04:22:49;;;;;;;15.75;4.70;;;1.00;99.90;;;;;;5025346;28;20032;-74
2023/02/06 04:25:14;;;;;;;14.30;3.45;;;1.00;99.90;;;;;;4995312;28;20143;-76
2023/02/06 04:27:40;;;;;;;14.93;3.80;;;1.00;99.90;;;;;;5029267;28;20552;-75
2023/02/06 04:30:06;;;;;;;16.55;3.63;;;1.00;99.90;;;;;;5032824;28;20033;-74
2023/02/06 04:32:32;;;;;;;27.90;6.07;;;1.00;99.90;;;;;;5032391;28;20064;-85
2023/02/06 04:35:00;;;;;;;24.15;5.13;;;1.00;99.90;;;;;;4994106;28;20029;-78
2023/02/06 04:37:27;;;;;;;21.05;4.18;;;1.00;99.90;;;;;;5027030;28;20033;-76
2023/02/06 04:39:52;;;;;;;21.58;4.00;;;1.00;99.90;;;;;;5010533;28;20056;-74
2023/02/06 04:42:18;;;;;;;21.60;3.75;;;1.00;99.90;;;;;;5031387;28;20116;-75
2023/02/06 04:44:44;;;;;;;20.30;4.43;;;1.00;99.90;;;;;;5041314;28;20025;-73
2023/02/06 04:47:10;;;;;;;20.45;5.05;;;1.10;99.90;;;;;;5029773;28;21306;-74
2023/02/06 04:49:35;;;;;;;22.92;4.78;;;1.10;99.90;;;;;;5042462;28;20029;-79
2023/02/06 04:52:01;;;;;;;15.45;3.55;;;1.00;99.90;;;;;;5010598;28;20028;-73
2023/02/06 04:54:27;;;;;;;16.45;3.40;;;1.00;99.90;;;;;;5025668;28;20029;-74
2023/02/06 04:56:53;;;;;;;19.48;3.83;;;1.00;99.90;;;;;;5027099;28;20642;-77
2023/02/06 04:59:18;;;;;;;14.38;3.42;;;1.00;99.90;;;;;;5041466;28;20025;-79
2023/02/06 05:01:44;;;;;;;22.08;4.10;;;1.00;99.90;;;;;;5007670;28;20120;-77
2023/02/06 05:04:10;;;;;;;20.67;3.85;;;1.00;99.90;;;;;;5011543;28;20088;-77
2023/02/06 05:06:36;;;;;;;15.90;3.70;;;1.10;99.90;;;;;;5009636;28;20035;-76
2023/02/06 05:09:08;;;;;;;15.82;4.60;;;1.10;99.90;;;;;;5022894;28;20029;-75
2023/02/06 05:11:34;;;;;;;19.33;4.13;;;1.10;99.90;;;;;;5027666;28;20381;-74
2023/02/06 05:14:00;;;;;;;21.77;5.13;;;1.10;99.90;;;;;;5026741;28;20497;-74
2023/02/06 05:16:26;;;;;;;16.60;4.50;;;1.10;99.90;;;;;;5026650;28;20060;-76
2023/02/06 05:18:53;;;;;;;18.65;4.80;;;1.10;99.90;;;;;;5026875;28;20037;-75
2023/02/06 05:21:20;;;;;;;18.67;3.53;;;1.10;99.90;;;;;;4991706;28;20057;-75
2023/02/06 05:23:46;;;;;;;21.30;4.22;;;1.10;99.90;;;;;;5028360;28;20025;-75
2023/02/06 05:26:13;;;;;;;20.83;4.18;;;1.10;99.90;;;;;;5028143;28;20054;-79
2023/02/06 05:28:39;;;;;;;18.23;4.20;;;1.10;99.90;;;;;;5010636;28;20616;-75
2023/02/06 05:31:04;;;;;;;19.70;3.78;;;1.10;99.90;;;;;;5024287;28;20136;-75
2023/02/06 05:33:30;;;;;;;25.58;5.35;;;1.10;99.90;;;;;;5028654;28;20817;-78
2023/02/06 05:36:04;;;;;;;13.68;4.18;;;1.10;99.90;;;;;;5008172;28;20091;-80
2023/02/06 05:38:31;;;;;;;12.18;3.80;;;1.10;99.90;;;;;;5009009;28;20056;-78
2023/02/06 05:40:57;;;;;;;22.30;4.85;;;1.10;99.90;;;;;;4986847;28;20164;-79
2023/02/06 05:43:24;;;;;;;18.65;4.47;;;1.10;99.90;;;;;;4990830;28;20037;-79
2023/02/06 05:45:50;;;;;;;16.52;3.95;;;1.10;99.90;;;;;;5008588;28;20021;-77
2023/02/06 05:48:16;;;;;;;17.73;3.92;;;1.10;99.90;;;;;;4990596;28;20112;-73
2023/02/06 05:50:42;;;;;;;23.95;3.65;;;1.10;99.90;;;;;;5024253;28;20577;-75
2023/02/06 05:53:07;;;;;;;17.23;4.30;;;1.10;99.90;;;;;;5026058;28;21074;-80
2023/02/06 05:55:33;;;;;;;19.98;4.53;;;1.10;99.90;;;;;;5023817;28;20494;-75
2023/02/06 05:58:00;;;;;;;22.42;3.90;;;1.10;99.90;;;;;;5024482;28;20509;-74
2023/02/06 06:00:26;;;;;;;11.23;3.60;;;1.10;99.90;;;;;;5024655;28;20038;-73
2023/02/06 06:02:51;;;;;;;22.25;4.65;;;1.00;99.90;;;;;;5025639;28;20433;-74
2023/02/06 06:05:17;;;;;;;15.13;3.85;;;1.00;99.90;;;;;;5026382;28;20117;-75
2023/02/06 06:07:43;;;;;;;18.23;4.63;;;1.00;99.90;;;;;;5004949;28;20028;-74
2023/02/06 06:10:09;;;;;;;23.92;4.38;;;1.00;99.90;;;;;;5020341;28;20032;-75
2023/02/06 06:12:35;;;;;;;20.77;4.80;;;1.00;99.90;;;;;;5027566;28;20402;-75
2023/02/06 06:15:01;;;;;;;19.30;4.07;;;1.00;99.90;;;;;;5023480;28;20037;-75
2023/02/06 06:17:28;;;;;;;18.17;4.65;;;1.00;99.90;;;;;;5007762;28;20033;-79
2023/02/06 06:19:57;;;;;;;13.25;4.15;;;0.90;99.90;;;;;;5017219;28;20710;-80
2023/02/06 06:22:23;;;;;;;20.20;4.30;;;0.90;99.90;;;;;;5008945;28;20033;-74
2023/02/06 06:24:51;;;;;;;15.02;4.32;;;0.90;99.90;;;;;;5041072;28;20033;-76
2023/02/06 06:27:17;;;;;;;16.55;5.22;;;0.90;99.90;;;;;;5028239;28;20026;-74
2023/02/06 06:29:44;;;;;;;21.63;4.45;;;0.90;99.90;;;;;;5025811;28;20060;-73
2023/02/06 06:32:09;;;;;;;21.73;6.03;;;0.90;99.90;;;;;;5020851;28;20047;-74
2023/02/06 06:34:35;;;;;;;18.40;4.15;;;0.90;99.90;;;;;;5023937;28;20073;-75
2023/02/06 06:37:01;;;;;;;18.13;3.83;;;0.90;99.90;;;;;;5015916;28;20037;-72
2023/02/06 06:39:28;;;;;;;22.20;4.18;;;0.80;99.90;;;;;;5018747;28;20033;-78
2023/02/06 06:41:53;;;;;;;17.08;4.65;;;0.80;99.90;;;;;;5047592;28;20087;-73
2023/02/06 06:44:19;;;;;;;15.65;4.50;;;0.80;99.90;;;;;;5031598;28;20564;-72
2023/02/06 06:46:45;;;;;;;19.17;4.57;;;0.80;99.90;;;;;;5040571;28;20113;-72
2023/02/06 06:49:11;;;;;;;21.63;6.13;;;0.80;99.90;;;;;;5029146;28;20399;-72
2023/02/06 06:51:36;;;;;;;16.90;4.10;;;0.80;99.90;;;;;;5024430;28;20047;-73
2023/02/06 06:54:02;;;;;;;16.05;4.15;;;0.80;99.90;;;;;;5028111;28;20026;-72
2023/02/06 06:56:28;;;;;;;19.60;5.53;;;0.80;99.90;;;;;;5024396;28;20690;-72
2023/02/06 06:58:55;;;;;;;18.33;4.07;;;0.80;99.90;;;;;;5027702;28;20053;-71
2023/02/06 07:01:21;;;;;;;17.00;3.85;;;0.80;99.90;;;;;;5027354;28;20029;-72
2023/02/06 07:03:47;;;;;;;14.75;4.78;;;0.90;99.90;;;;;;5027618;28;20048;-72
2023/02/06 07:06:14;;;;;;;22.65;4.72;;;0.90;99.90;;;;;;5025808;28;20417;-74
2023/02/06 07:08:40;;;;;;;20.52;4.40;;;0.90;99.90;;;;;;5028647;28;20021;-75
2023/02/06 07:11:13;;;;;;;22.20;4.63;;;1.00;99.90;;;;;;5029909;28;20087;-73
2023/02/06 07:13:39;;;;;;;16.50;5.05;;;1.00;99.90;;;;;;5027485;28;20025;-73
2023/02/06 07:16:08;;;;;;;17.77;5.13;;;1.00;99.90;;;;;;5018700;28;20416;-72
2023/02/06 07:18:34;;;;;;;17.30;4.43;;;1.10;99.90;;;;;;5023467;28;20041;-73
2023/02/06 07:21:00;;;;;;;15.57;4.50;;;1.10;99.90;;;;;;5026229;28;20041;-73
2023/02/06 07:23:26;;;;;;;13.65;4.15;;;1.10;99.90;;;;;;5025578;28;20477;-72
2023/02/06 07:25:52;;;;;;;14.00;3.92;;;1.10;99.90;;;;;;5025582;28;20032;-72
2023/02/06 07:28:18;;;;;;;11.88;3.75;;;1.20;99.90;;;;;;5028828;28;20026;-75
2023/02/06 07:30:44;;;;;;;23.95;4.45;;;1.20;99.90;;;;;;5040610;28;20116;-79
2023/02/06 07:33:09;;;;;;;12.68;4.30;;;1.30;99.90;;;;;;5009857;28;20563;-73
2023/02/06 07:35:35;;;;;;;13.70;4.00;;;1.30;99.90;;;;;;5024344;28;20033;-76
2023/02/06 07:38:02;;;;;;;14.23;3.88;;;1.30;99.90;;;;;;5025728;28;20041;-74
2023/02/06 07:40:28;;;;;;;13.45;4.18;;;1.40;99.90;;;;;;5040719;28;20056;-73
2023/02/06 07:42:55;;;;;;;20.45;4.40;;;1.40;99.90;;;;;;5026678;28;20053;-72
2023/02/06 07:45:20;;;;;;;20.70;5.00;;;1.50;99.90;;;;;;5027179;28;20059;-73
2023/02/06 07:47:46;;;;;;;14.82;4.88;;;1.50;99.90;;;;;;5025920;28;20033;-72
2023/02/06 07:50:12;;;;;;;15.13;4.65;;;1.50;99.90;;;;;;5028104;28;20438;-73
2023/02/06 07:52:38;;;;;;;10.55;3.97;;;1.60;99.90;;;;;;5031944;28;20037;-74
2023/02/06 07:55:04;;;;;;;12.50;4.30;;;1.60;99.90;;;;;;5033279;28;20040;-73
2023/02/06 07:57:33;;;;;;;20.33;4.93;;;1.70;99.90;;;;;;5026505;28;20029;-74
2023/02/06 07:59:59;;;;;;;17.85;4.05;;;1.70;99.90;;;;;;5040398;28;20038;-74
2023/02/06 08:02:28;;;;;;;17.25;4.88;;;1.80;99.90;;;;;;5026717;28;20416;-74
2023/02/06 08:04:53;;;;;;;19.92;5.60;;;1.80;99.90;;;;;;5027988;28;20029;-74
2023/02/06 08:07:19;;;;;;;12.00;4.50;;;1.80;99.90;;;;;;5023470;28;20702;-75
2023/02/06 08:09:45;;;;;;;20.73;4.55;;;1.90;99.90;;;;;;5005275;28;20044;-73
2023/02/06 08:12:11;;;;;;;17.08;4.05;;;1.90;99.90;;;;;;5027526;28;20037;-74
2023/02/06 08:14:36;;;;;;;19.73;4.25;;;2.00;99.90;;;;;;5024830;28;20716;-72
2023/02/06 08:17:02;;;;;;;19.58;5.40;;;2.00;99.90;;;;;;5026278;28;20029;-75
2023/02/06 08:19:28;;;;;;;26.65;4.95;;;2.00;99.90;;;;;;5025524;28;20029;-75
2023/02/06 08:21:54;;;;;;;21.58;4.90;;;2.10;99.90;;;;;;5026686;28;20039;-73
2023/02/06 08:24:19;;;;;;;22.13;5.03;;;2.10;99.90;;;;;;5025717;28;20025;-72
2023/02/06 08:26:45;;;;;;;23.20;6.10;;;2.20;99.90;;;;;;5026723;28;20033;-72
2023/02/06 08:29:13;;;;;;;24.42;5.10;;;2.20;99.90;;;;;;5023589;28;22640;-73
2023/02/06 08:31:41;;;;;;;25.23;6.15;;;2.30;99.90;;;;;;5022362;28;20501;-72
2023/02/06 08:34:11;;;;;;;20.25;4.53;;;2.30;99.90;;;;;;5007419;28;20405;-72
2023/02/06 08:36:37;;;;;;;19.10;4.55;;;2.30;99.90;;;;;;5026335;28;20500;-71
2023/02/06 08:39:04;;;;;;;17.77;5.15;;;2.30;99.90;;;;;;5029549;28;20116;-75
2023/02/06 08:41:36;;;;;;;18.65;4.90;;;2.30;99.90;;;;;;5028406;28;20030;-72
2023/02/06 08:44:03;;;;;;;26.05;6.32;;;2.30;99.90;;;;;;5008696;28;20038;-75
2023/02/06 08:46:31;;;;;;;16.92;5.55;;;2.30;99.90;;;;;;5024479;28;20458;-72
2023/02/06 08:49:03;;;;;;;28.45;7.38;;;2.30;99.90;;;;;;5016457;28;20041;-73
2023/02/06 08:51:30;;;;;;;23.17;5.20;;;2.40;99.90;;;;;;5018510;28;20041;-72
2023/02/06 08:54:05;;;;;;;19.65;6.32;;;2.40;99.90;;;;;;5025019;28;20026;-72
2023/02/06 08:56:32;;;;;;;24.88;6.80;;;2.40;99.90;;;;;;5035422;28;20187;-73
2023/02/06 08:58:58;;;;;;;23.25;7.30;;;2.40;99.90;;;;;;5018046;28;20053;-74
2023/02/06 09:01:25;;;;;;;21.02;7.07;;;2.40;99.90;;;;;;5021072;28;20398;-74
2023/02/06 09:03:54;;;;;;;23.52;6.82;;;2.40;99.90;;;;;;5021855;28;20501;-74
2023/02/06 09:06:20;;;;;;;23.38;6.60;;;2.40;99.90;;;;;;5022437;28;20520;-74
2023/02/06 09:08:46;;;;;;;25.90;6.80;;;2.40;99.90;;;;;;5023975;28;20136;-73
2023/02/06 09:11:18;;;;;;;15.93;6.00;;;2.50;99.90;;;;;;5024679;28;20052;-73
2023/02/06 09:13:48;;;;;;;32.88;7.50;;;2.50;99.90;;;;;;5024161;28;20075;-73
2023/02/06 09:16:15;;;;;;;19.02;7.32;;;2.50;99.90;;;;;;5015825;28;20041;-73
2023/02/06 09:18:41;;;;;;;26.98;7.40;;;2.50;99.90;;;;;;5017130;28;20033;-72
2023/02/06 09:21:13;;;;;;;25.33;7.28;;;2.50;99.90;;;;;;5012497;28;20470;-72
2023/02/06 09:23:42;;;;;;;22.50;7.30;;;2.50;99.90;;;;;;5017147;28;20052;-75
2023/02/06 09:26:19;;;;;;;25.48;7.70;;;2.50;99.90;;;;;;5025480;28;20029;-73
2023/02/06 09:28:45;;;;;;;20.60;7.75;;;2.50;99.90;;;;;;5023979;28;20109;-72
2023/02/06 09:31:12;;;;;;;25.85;8.88;;;2.50;99.90;;;;;;5019112;28;20025;-72
2023/02/06 09:33:41;;;;;;;24.20;8.20;;;2.60;99.90;;;;;;5026183;28;20025;-72
2023/02/06 09:36:12;;;;;;;23.95;8.10;;;2.60;99.90;;;;;;5027126;28;20132;-72
2023/02/06 09:38:41;;;;;;;26.30;9.15;;;2.70;99.90;;;;;;5006080;28;20091;-72
2023/02/06 09:41:28;;;;;;;24.42;8.80;;;2.80;99.90;;;;;;5007153;28;20517;-72
2023/02/06 09:43:59;;;;;;;24.80;9.40;;;2.70;99.90;;;;;;5025056;28;20505;-73
2023/02/06 09:46:30;;;;;;;28.10;8.75;;;2.80;99.90;;;;;;5022446;28;20059;-72
2023/02/06 09:48:57;;;;;;;;;;;2.80;99.90;;;;;;5020107;28;20123;-74
2023/02/06 09:51:44;;;;;;;22.83;8.68;;;2.80;99.90;;;;;;5026862;28;20376;-75
2023/02/06 09:54:23;;;;;;;17.65;7.55;;;3.00;99.90;;;;;;5023877;28;20033;-74
2023/02/06 09:56:57;;;;;;;26.27;8.63;;;3.20;99.90;;;;;;5013991;28;20592;-73
2023/02/06 09:59:39;;;;;;;21.50;8.07;;;3.30;99.90;;;;;;5024603;28;20160;-74
2023/02/06 10:02:39;;;;;;;26.77;8.48;;;3.30;99.90;;;;;;5024731;28;20065;-74
2023/02/06 10:05:13;;;;;;;21.58;8.40;;;3.40;99.90;;;;;;5023838;28;20144;-73
2023/02/06 10:08:00;;;;;;;27.98;9.15;;;3.50;99.90;;;;;;5023634;28;20108;-71
2023/02/06 10:10:41;;;;;;;26.70;8.73;;;3.50;99.90;;;;;;5034362;28;20033;-73
2023/02/06 10:13:18;;;;;;;23.23;8.90;;;3.50;99.90;;;;;;5023427;28;20029;-75
2023/02/06 10:15:50;;;;;;;21.00;8.77;;;3.40;99.90;;;;;;5022884;28;20279;-75
2023/02/06 10:18:35;;;;;;;25.50;9.00;;;3.50;99.90;;;;;;5025998;28;20029;-74
2023/02/06 10:21:09;;;;;;;21.60;9.25;;;3.70;99.90;;;;;;5023086;28;20056;-75
2023/02/06 10:23:49;;;;;;;26.02;10.38;;;3.60;99.90;;;;;;5025576;28;20519;-74
2023/02/06 10:26:17;;;;;;;23.85;9.55;;;3.60;99.90;;;;;;5025794;28;20622;-73
2023/02/06 10:28:53;;;;;;;23.23;9.90;;;3.60;99.90;;;;;;5025928;28;20044;-71
2023/02/06 10:31:51;;;;;;;26.33;9.38;;;3.60;99.90;;;;;;5025558;28;20622;-72
2023/02/06 10:34:24;;;;;;;20.45;8.95;;;3.70;99.90;;;;;;5006853;28;20561;-76
2023/02/06 10:37:05;;;;;;;28.20;10.57;;;3.80;99.90;;;;;;5027300;28;20021;-72
2023/02/06 10:39:42;;;;;;;27.48;10.45;;;3.70;99.90;;;;;;5025030;28;20588;-75
2023/02/06 10:42:15;;;;;;;23.90;9.55;;;3.70;99.90;;;;;;5030913;28;20045;-75
2023/02/06 10:45:10;;;;;;;26.02;10.02;;;3.80;99.90;;;;;;5030178;28;20513;-74
2023/02/06 10:48:00;;;;;;;30.63;10.27;;;3.80;99.90;;;;;;5010332;28;20374;-73
2023/02/06 10:50:31;;;;;;;26.58;10.18;;;3.80;99.90;;;;;;5026462;28;20029;-72
2023/02/06 10:53:13;;;;;;;24.90;10.57;;;3.90;99.90;;;;;;5024598;28;20498;-76
2023/02/06 10:55:50;;;;;;;25.92;9.98;;;3.90;99.90;;;;;;5026825;28;20026;-75
2023/02/06 10:58:27;;;;;;;27.20;10.70;;;3.90;99.90;;;;;;5026797;28;20064;-73
2023/02/06 11:00:54;;;;;;;29.10;10.55;;;3.90;99.90;;;;;;5023048;28;20033;-75
2023/02/06 11:03:23;;;;;;;27.73;11.10;;;4.00;99.90;;;;;;5028471;28;20017;-72
2023/02/06 11:05:51;;;;;;;28.48;11.45;;;4.00;99.90;;;;;;5025597;28;20030;-75
2023/02/06 11:08:40;;;;;;;20.80;9.75;;;3.90;99.90;;;;;;5028999;28;20026;-74
2023/02/06 11:11:30;;;;;;;32.15;12.25;;;4.00;99.90;;;;;;5023970;28;20407;-73
2023/02/06 11:14:22;;;;;;;24.38;10.55;;;3.80;99.90;;;;;;5026731;28;20738;-74
2023/02/06 11:16:48;;;;;;;26.88;11.93;;;3.80;99.90;;;;;;5026694;28;20064;-75
2023/02/06 11:19:24;;;;;;;26.65;9.82;;;3.80;99.90;;;;;;5036700;28;20121;-74
2023/02/06 11:22:06;;;;;;;23.88;10.60;;;3.80;99.90;;;;;;5026540;28;20034;-76
2023/02/06 11:24:33;;;;;;;20.85;10.20;;;3.80;99.90;;;;;;5029565;28;20117;-75
2023/02/06 11:27:02;;;;;;;32.10;13.85;;;3.80;99.90;;;;;;5029776;28;20034;-75
2023/02/06 11:29:35;;;;;;;21.00;10.15;;;3.70;99.90;;;;;;5028635;28;20029;-73
2023/02/06 11:32:04;;;;;;;19.83;10.30;;;3.70;99.90;;;;;;5008114;28;20045;-72
2023/02/06 11:34:43;;;;;;;23.35;10.70;;;3.70;99.90;;;;;;5008873;28;20083;-72
2023/02/06 11:37:27;;;;;;;24.65;11.02;;;3.70;99.90;;;;;;5028479;28;20088;-69
2023/02/06 11:39:53;;;;;;;25.75;10.85;;;3.70;99.90;;;;;;5029140;28;20029;-73
2023/02/06 11:42:27;;;;;;;22.80;11.80;;;3.70;99.90;;;;;;5028035;28;20383;-73
2023/02/06 11:44:53;;;;;;;29.23;11.43;;;3.70;99.90;;;;;;5029243;28;20128;-71
2023/02/06 11:47:29;;;;;;;25.25;11.32;;;3.80;99.90;;;;;;5029860;28;20033;-72
2023/02/06 11:49:56;;;;;;;24.83;11.27;;;3.70;99.90;;;;;;5027885;28;20025;-74
2023/02/06 11:52:33;;;;;;;24.92;11.20;;;3.70;99.90;;;;;;5030974;28;20022;-74
2023/02/06 11:55:01;;;;;;;24.15;11.07;;;3.80;99.90;;;;;;5028165;28;20025;-73
2023/02/06 11:57:32;;;;;;;21.42;10.57;;;3.80;99.90;;;;;;5032303;28;20419;-75
2023/02/06 12:00:02;;;;;;;21.40;10.90;;;3.80;99.90;;;;;;5034274;28;20072;-75
2023/02/06 12:02:34;;;;;;;26.52;12.50;;;3.80;99.90;;;;;;5028036;28;20493;-71
2023/02/06 12:05:13;;;;;;;19.80;10.60;;;3.80;99.90;;;;;;5027909;28;20051;-73
2023/02/06 12:08:02;;;;;;;26.00;10.93;;;3.70;99.90;;;;;;5026533;28;21421;-75
2023/02/06 12:10:33;;;;;;;25.90;9.60;;;3.70;99.90;;;;;;4964186;28;20039;-73
2023/02/06 12:13:05;;;;;;;21.27;9.68;;;3.60;99.90;;;;;;4970240;28;20035;-72
2023/02/06 12:16:05;;;;;;;22.48;9.70;;;3.70;99.90;;;;;;4984005;28;20526;-73
2023/02/06 12:18:39;;;;;;;26.65;9.75;;;3.70;99.90;;;;;;4925924;28;20046;-72
2023/02/06 12:21:14;;;;;;;20.98;8.93;;;3.80;99.90;;;;;;4951558;28;20043;-72
2023/02/06 12:23:46;;;;;;;21.60;8.63;;;3.80;99.90;;;;;;4962354;28;20031;-73
2023/02/06 12:26:19;;;;;;;17.33;8.98;;;3.80;99.90;;;;;;4961316;28;20510;-75
2023/02/06 12:29:06;;;;;;;17.25;8.15;;;3.70;99.90;;;;;;4964506;28;20138;-72
2023/02/06 12:31:35;;;;;;;22.40;9.75;;;3.70;99.90;;;;;;4970527;28;20133;-75
2023/02/06 12:34:14;;;;;;;18.48;8.13;;;3.70;99.90;;;;;;4968434;28;20285;-73
2023/02/06 12:36:57;;;;;;;17.35;8.38;;;3.70;99.90;;;;;;4968253;28;20031;-74
2023/02/06 12:39:31;;;;;;;24.52;8.38;;;3.80;99.90;;;;;;4966152;28;20030;-73
2023/02/06 12:42:33;;;;;;;20.20;8.70;;;3.70;99.90;;;;;;4948944;28;20043;-73
2023/02/06 12:45:30;;;;;;;17.10;8.35;;;3.60;99.90;;;;;;4966985;28;20262;-73
2023/02/06 12:48:13;;;;;;;15.73;8.00;;;3.50;99.90;;;;;;4992803;28;20072;-72
2023/02/06 12:50:52;;;;;;;16.80;10.00;;;3.40;99.90;;;;;;5027365;28;20037;-73
2023/02/06 12:53:30;;;;;;;20.60;7.78;;;3.40;99.90;;;;;;5027963;28;20038;-74
2023/02/06 12:56:03;;;;;;;17.10;7.90;;;3.40;99.90;;;;;;5029788;28;20018;-73
2023/02/06 12:58:41;;;;;;;15.82;8.10;;;3.30;99.90;;;;;;5028175;28;20083;-74
2023/02/06 13:01:40;;;;;;;19.63;8.80;;;3.30;99.90;;;;;;5039203;28;20045;-76
2023/02/06 13:04:13;;;;;;;23.13;8.50;;;3.30;99.90;;;;;;5033899;28;20131;-76